Time;durP1;ratioP1;P1;durP2;ratioP2;P2;SDS_P1;SDS_P2;PMS_P1;PMS_P2;Temp;Humidity;BMP_temperature;BMP_pressure;BME280_temperature;BME280_humidity;BME280_pressure;Samples;Min_cycle;Max_cycle;Signal;HPM_P1;HPM_P2
2021/06/15 00:02:25;;;;;;;;;;;;;;;26.05;50.22;100319.88;1798404;80;20124;-76
2021/06/15 00:04:51;;;;;;;;;;;;;;;26.07;50.22;100322.34;1797925;80;20132;-77
2021/06/15 00:07:17;;;;;;;;;;;;;;;26.07;50.13;100323.71;1798500;80;20289;-77
2021/06/15 00:09:43;;;;;;;;;;;;;;;26.09;50.05;100327.59;1798193;80;20141;-77
2021/06/15 00:12:10;;;;;;;;;;;;;;;26.10;49.99;100328.69;1798237;80;20284;-77
2021/06/15 00:14:36;;;;;;;;;;;;;;;26.10;49.99;100327.31;1797885;80;20176;-77
2021/06/15 00:17:04;;;;;;;;;;;;;;;26.09;49.99;100326.22;1798157;80;20156;-77
2021/06/15 00:19:30;;;;;;;;;;;;;;;26.07;49.99;100330.58;1798204;80;20183;-76
2021/06/15 00:21:57;;;;;;;;;;;;;;;26.04;50.04;100329.75;1798217;80;20198;-77
2021/06/15 00:24:23;;;;;;;;;;;;;;;26.05;50.07;100331.40;1797856;80;20128;-77
2021/06/15 00:26:49;;;;;;;;;;;;;;;26.05;50.15;100335.52;1798012;80;20140;-77
2021/06/15 00:29:15;;;;;;;;;;;;;;;26.05;50.20;100330.03;1798005;80;20206;-77
2021/06/15 00:31:41;;;;;;;;;;;;;;;26.42;49.41;100334.10;1797875;80;20139;-77
2021/06/15 00:34:07;;;;;;;;;;;;;;;26.52;49.19;100337.48;1797577;80;20449;-77
2021/06/15 00:36:33;;;;;;;;;;;;;;;26.55;49.06;100341.07;1798032;80;20139;-77
2021/06/15 00:39:00;;;;;;;;;;;;;;;26.55;49.03;100334.20;1798338;80;20190;-77
2021/06/15 00:41:27;;;;;;;;;;;;;;;26.54;49.00;100333.94;1798119;80;20132;-77
2021/06/15 00:43:53;;;;;;;;;;;;;;;26.52;49.00;100332.80;1798149;80;20205;-77
2021/06/15 00:46:20;;;;;;;;;;;;;;;26.50;49.16;100332.81;1798126;80;20168;-77
2021/06/15 00:48:47;;;;;;;;;;;;;;;26.46;49.21;100335.25;1798186;80;20123;-77
2021/06/15 00:51:14;;;;;;;;;;;;;;;26.45;49.26;100333.61;1798174;80;20406;-77
2021/06/15 00:53:40;;;;;;;;;;;;;;;26.46;49.24;100326.19;1798070;80;20124;-77
2021/06/15 00:56:07;;;;;;;;;;;;;;;26.48;49.18;100325.36;1782364;80;20120;-77
2021/06/15 00:58:33;;;;;;;;;;;;;;;26.14;49.94;100328.98;1795428;80;20160;-77
2021/06/15 01:01:00;;;;;;;;;;;;;;;26.02;50.20;100328.63;1799981;79;20475;-77
2021/06/15 01:03:28;;;;;;;;;;;;;;;25.98;50.30;100334.90;1768635;81;20446;-77
2021/06/15 01:05:55;;;;;;;;;;;;;;;25.96;50.39;100331.61;1768496;81;20103;-77
2021/06/15 01:08:37;;;;;;;;;;;;;;;25.95;50.47;100329.96;1751248;81;20144;-77
2021/06/15 01:11:27;;;;;;;;;;;;;;;25.93;50.59;100328.83;1765506;80;20133;-76
2021/06/15 01:14:16;;;;;;;;;;;;;;;25.93;50.68;100319.77;1767744;81;20195;-75
2021/06/15 01:16:51;;;;;;;;;;;;;;;25.93;50.70;100323.89;1768785;81;20137;-75
2021/06/15 01:19:44;;;;;;;;;;;;;;;25.92;50.75;100312.64;1777160;80;20175;-76
2021/06/15 01:22:20;;;;;;;;;;;;;;;25.92;50.76;100316.20;1746198;81;20153;-76
2021/06/15 01:24:53;;;;;;;;;;;;;;;25.95;50.74;100317.61;1768736;80;20161;-75
2021/06/15 01:27:36;;;;;;;;;;;;;;;25.93;50.89;100326.64;1769371;80;20164;-75
2021/06/15 01:30:05;;;;;;;;;;;;;;;25.92;50.96;100333.22;1767927;81;20175;-75
2021/06/15 01:32:32;;;;;;;;;;;;;;;26.22;50.21;100326.58;1772438;79;20413;-76
2021/06/15 01:34:59;;;;;;;;;;;;;;;26.02;50.55;100337.41;1800880;79;20151;-76
2021/06/15 01:37:29;;;;;;;;;;;;;;;26.26;49.93;100330.45;1801494;79;20152;-76
2021/06/15 01:40:12;;;;;;;;;;;;;;;26.00;50.47;100324.50;1800907;79;20131;-76
2021/06/15 01:42:40;;;;;;;;;;;;;;;25.85;50.82;100325.22;1799350;79;20179;-75
2021/06/15 01:45:21;;;;;;;;;;;;;;;25.80;51.03;100326.56;1800996;79;20151;-76
2021/06/15 01:48:09;;;;;;;;;;;;;;;25.76;51.28;100330.91;1801423;79;20131;-76
2021/06/15 01:50:38;;;;;;;;;;;;;;;25.75;51.46;100334.17;1801221;79;20171;-77
2021/06/15 01:53:06;;;;;;;;;;;;;;;25.75;51.50;100330.06;1801308;79;20221;-76
2021/06/15 01:55:32;;;;;;;;;;;;;;;25.76;51.52;100329.55;1800842;79;20147;-76
2021/06/15 01:57:59;;;;;;;;;;;;;;;25.77;51.58;100324.33;1801117;79;20144;-76
2021/06/15 02:00:26;;;;;;;;;;;;;;;26.07;50.98;100326.45;1772468;79;20182;-76
2021/06/15 02:02:54;;;;;;;;;;;;;;;26.13;50.80;100326.80;1769548;80;20399;-76
2021/06/15 02:05:30;;;;;;;;;;;;;;;25.86;51.49;100335.66;1766563;81;20194;-76
2021/06/15 02:07:57;;;;;;;;;;;;;;;25.85;51.64;100329.89;1799943;79;20245;-76
2021/06/15 02:10:24;;;;;;;;;;;;;;;25.86;51.71;100331.54;1740417;81;20463;-76
2021/06/15 02:13:00;;;;;;;;;;;;;;;26.29;50.76;100324.41;1767215;80;20160;-75
2021/06/15 02:15:46;;;;;;;;;;;;;;;26.35;50.58;100321.72;1731264;83;20542;-75
2021/06/15 02:18:27;;;;;;;;;;;;;;;26.35;50.48;100323.92;1769677;80;20140;-76
2021/06/15 02:20:56;;;;;;;;;;;;;;;25.98;51.28;100328.04;1781954;80;20199;-76
2021/06/15 02:23:23;;;;;;;;;;;;;;;25.90;51.51;100332.13;1768394;81;20194;-76
2021/06/15 02:25:51;;;;;;;;;;;;;;;25.90;51.63;100334.05;1772662;79;20191;-76
2021/06/15 02:28:19;;;;;;;;;;;;;;;25.90;51.60;100329.38;1767809;81;20527;-76
2021/06/15 02:30:45;;;;;;;;;;;;;;;25.90;51.51;100332.67;1768035;81;20195;-75
2021/06/15 02:33:14;;;;;;;;;;;;;;;26.06;51.15;100335.79;1767814;80;20215;-75
2021/06/15 02:35:45;;;;;;;;;;;;;;;25.90;51.42;100337.61;1793086;80;20413;-75
2021/06/15 02:38:13;;;;;;;;;;;;;;;25.89;51.45;100335.11;1767444;81;20198;-76
2021/06/15 02:40:41;;;;;;;;;;;;;;;25.89;51.42;100339.22;1767837;81;20198;-75
2021/06/15 02:43:08;;;;;;;;;;;;;;;25.90;51.47;100343.64;1767758;81;20166;-76
2021/06/15 02:45:36;;;;;;;;;;;;;;;25.92;51.53;100349.69;1767710;81;20221;-77
2021/06/15 02:48:05;;;;;;;;;;;;;;;25.94;51.51;100346.16;1767944;81;20479;-77
2021/06/15 02:50:35;;;;;;;;;;;;;;;25.93;51.42;100346.67;1767199;81;20202;-76
2021/06/15 02:53:12;;;;;;;;;;;;;;;25.95;51.30;100343.68;1767793;81;20475;-77
2021/06/15 02:55:40;;;;;;;;;;;;;;;26.09;50.75;100339.39;1767938;81;20459;-77
2021/06/15 02:58:06;;;;;;;;;;;;;;;25.94;51.06;100342.86;1767799;80;20241;-76
2021/06/15 03:00:33;;;;;;;;;;;;;;;25.91;51.04;100339.26;1768247;81;20223;-76
2021/06/15 03:02:59;;;;;;;;;;;;;;;25.92;51.12;100338.16;1739808;81;20197;-76
2021/06/15 03:05:26;;;;;;;;;;;;;;;25.94;51.16;100337.38;1767872;80;20460;-76
2021/06/15 03:07:53;;;;;;;;;;;;;;;25.97;51.15;100341.48;1766563;81;20209;-76
2021/06/15 03:10:19;;;;;;;;;;;;;;;25.98;51.16;100337.64;1739307;81;20445;-76
2021/06/15 03:12:52;;;;;;;;;;;;;;;26.00;51.21;100334.11;1749878;81;20187;-77
2021/06/15 03:15:21;;;;;;;;;;;;;;;26.01;51.18;100341.25;1793034;80;20159;-76
2021/06/15 03:17:51;;;;;;;;;;;;;;;26.03;51.13;100348.69;1766332;81;20162;-76
2021/06/15 03:20:18;;;;;;;;;;;;;;;26.03;51.05;100350.89;1800801;79;20143;-76
2021/06/15 03:23:10;;;;;;;;;;;;;;;26.05;51.04;100350.61;1771488;79;20206;-76
2021/06/15 03:25:37;;;;;;;;;;;;;;;26.04;50.93;100349.79;1767771;81;20189;-76
2021/06/15 03:28:11;;;;;;;;;;;;;;;26.06;50.95;100346.77;1767547;80;20852;-76
2021/06/15 03:30:39;;;;;;;;;;;;;;;26.09;50.89;100350.92;1738275;81;20185;-77
2021/06/15 03:33:08;;;;;;;;;;;;;;;26.06;50.89;100351.71;1756942;80;20203;-76
2021/06/15 03:35:37;;;;;;;;;;;;;;;26.03;50.86;100344.02;1785565;80;20133;-77
2021/06/15 03:38:04;;;;;;;;;;;;;;;26.02;50.81;100341.52;1784989;80;20171;-77
2021/06/15 03:40:34;;;;;;;;;;;;;;;26.02;50.81;100347.02;1785783;80;20276;-77
2021/06/15 03:43:01;;;;;;;;;;;;;;;25.99;50.76;100339.33;1784746;80;20199;-77
2021/06/15 03:45:30;;;;;;;;;;;;;;;25.96;50.81;100346.70;1783950;80;20171;-77
2021/06/15 03:47:56;;;;;;;;;;;;;;;25.95;50.74;100352.73;1785626;80;20426;-77
2021/06/15 03:50:22;;;;;;;;;;;;;;;25.97;50.79;100351.09;1771734;79;20238;-77
2021/06/15 03:52:50;;;;;;;;;;;;;;;25.97;50.81;100346.42;1756423;80;20748;-77
2021/06/15 03:55:17;;;;;;;;;;;;;;;26.26;50.18;100343.36;1802276;79;20207;-77
2021/06/15 03:57:43;;;;;;;;;;;;;;;26.44;49.63;100338.01;1785947;80;20144;-77
2021/06/15 04:00:13;;;;;;;;;;;;;;;26.47;49.46;100337.45;1780777;78;20191;-77
2021/06/15 04:02:39;;;;;;;;;;;;;;;26.47;49.44;100337.45;1791892;80;20133;-78
2021/06/15 04:05:08;;;;;;;;;;;;;;;26.51;49.41;100348.19;1770181;80;20178;-77
2021/06/15 04:07:34;;;;;;;;;;;;;;;26.22;49.91;100348.55;1778938;80;20206;-77
2021/06/15 04:10:00;;;;;;;;;;;;;;;26.11;50.19;100357.78;1787729;79;20209;-77
2021/06/15 04:12:27;;;;;;;;;;;;;;;26.12;50.32;100354.52;1814529;78;20210;-77
2021/06/15 04:14:53;;;;;;;;;;;;;;;26.17;50.48;100355.37;1767151;79;20165;-77
2021/06/15 04:17:27;;;;;;;;;;;;;;;26.21;50.51;100351.02;1764432;80;20176;-76
2021/06/15 04:19:55;;;;;;;;;;;;;;;26.28;50.53;100352.14;1739755;81;20429;-76
2021/06/15 04:22:24;;;;;;;;;;;;;;;26.40;50.14;100357.45;1788165;79;20265;-76
2021/06/15 04:24:52;;;;;;;;;;;;;;;26.48;49.87;100361.08;1763200;81;20276;-76
2021/06/15 04:27:22;;;;;;;;;;;;;;;26.52;49.79;100365.77;1783523;80;20144;-76
2021/06/15 04:29:49;;;;;;;;;;;;;;;26.56;49.63;100362.77;1775830;79;20140;-75
2021/06/15 04:32:17;;;;;;;;;;;;;;;26.62;49.64;100366.40;1781780;79;20229;-75
2021/06/15 04:34:45;;;;;;;;;;;;;;;26.85;49.15;100368.43;1760543;79;20160;-75
2021/06/15 04:37:11;;;;;;;;;;;;;;;26.83;48.92;100364.55;1784625;78;20429;-76
2021/06/15 04:39:44;;;;;;;;;;;;;;;26.80;49.02;100367.31;1760268;81;20176;-77
2021/06/15 04:42:13;;;;;;;;;;;;;;;26.81;48.92;100359.89;1782357;80;20184;-77
2021/06/15 04:44:44;;;;;;;;;;;;;;;27.24;47.93;100361.43;1773933;80;20734;-76
2021/06/15 04:47:31;;;;;;;;;;;;;;;27.36;47.65;100363.13;1745658;80;20183;-76
2021/06/15 04:50:03;;;;;;;;;;;;;;;27.43;47.48;100372.75;1784749;78;20494;-76
2021/06/15 04:52:29;;;;;;;;;;;;;;;27.09;48.13;100365.52;1781707;79;20159;-76
2021/06/15 04:54:56;;;;;;;;;;;;;;;27.07;48.09;100370.45;1759693;80;20157;-76
2021/06/15 04:57:29;;;;;;;;;;;;;;;27.10;47.88;100364.97;1779787;80;20164;-76
2021/06/15 04:59:59;;;;;;;;;;;;;;;27.11;47.83;100356.99;1770865;80;20461;-76
2021/06/15 05:02:25;;;;;;;;;;;;;;;27.13;47.89;100356.19;1773744;80;20159;-76
2021/06/15 05:04:52;;;;;;;;;;;;;;;27.17;47.97;100343.56;1788340;79;20176;-75
2021/06/15 05:07:21;;;;;;;;;;;;;;;27.21;47.85;100350.99;1766080;80;20176;-76
2021/06/15 05:09:52;;;;;;;;;;;;;;;27.26;47.83;100348.25;1772632;80;20159;-76
2021/06/15 05:12:19;;;;;;;;;;;;;;;27.28;47.63;100352.92;1761087;80;20129;-76
2021/06/15 05:14:45;;;;;;;;;;;;;;;27.28;47.72;100346.59;1775112;79;20557;-76
2021/06/15 05:17:11;;;;;;;;;;;;;;;27.33;48.00;100351.28;1799616;78;20160;-77
2021/06/15 05:19:40;;;;;;;;;;;;;;;27.43;47.81;100354.05;1757002;80;20147;-77
2021/06/15 05:22:24;;;;;;;;;;;;;;;27.46;47.83;100353.51;1763121;79;20152;-76
2021/06/15 05:24:56;;;;;;;;;;;;;;;27.47;47.78;100355.16;1764250;79;20160;-77
2021/06/15 05:27:25;;;;;;;;;;;;;;;27.52;47.88;100360.66;1787396;78;20150;-77
2021/06/15 05:29:51;;;;;;;;;;;;;;;27.55;47.89;100365.63;1762588;79;20142;-77
2021/06/15 05:32:18;;;;;;;;;;;;;;;27.63;47.83;100368.40;1781263;78;20174;-76
2021/06/15 05:34:44;;;;;;;;;;;;;;;27.63;47.77;100367.02;1787100;78;20883;-76
2021/06/15 05:37:10;;;;;;;;;;;;;;;27.65;47.37;100364.25;1788098;78;20174;-77
2021/06/15 05:39:39;;;;;;;;;;;;;;;27.69;47.30;100365.36;1758704;78;20129;-77
2021/06/15 05:42:06;;;;;;;;;;;;;;;27.72;47.45;100357.98;1792801;78;20534;-77
2021/06/15 05:44:37;;;;;;;;;;;;;;;27.79;47.53;100359.06;1685850;78;20413;-77
2021/06/15 05:47:04;;;;;;;;;;;;;;;27.84;47.28;100359.62;1695209;82;20202;-77
2021/06/15 05:49:30;;;;;;;;;;;;;;;27.90;47.33;100356.61;1703653;82;20176;-76
2021/06/15 05:52:03;;;;;;;;;;;;;;;27.97;47.62;100359.89;1710131;82;20172;-75
2021/06/15 05:54:29;;;;;;;;;;;;;;;28.43;46.61;100354.90;1706839;82;20149;-76
2021/06/15 05:56:56;;;;;;;;;;;;;;;28.22;46.87;100355.48;1704671;82;20180;-76
2021/06/15 05:59:23;;;;;;;;;;;;;;;28.21;47.27;100357.41;1706006;82;20157;-75
2021/06/15 06:01:49;;;;;;;;;;;;;;;28.29;47.23;100356.82;1708829;82;20259;-77
2021/06/15 06:04:20;;;;;;;;;;;;;;;28.38;47.10;100354.91;1708575;82;20169;-77
2021/06/15 06:09:31;;;;;;;;;;;;;;;28.83;46.07;100352.01;1708871;82;20148;-77
2021/06/15 06:11:57;;;;;;;;;;;;;;;28.85;46.39;100350.37;1664632;84;21034;-77
2021/06/15 06:14:23;;;;;;;;;;;;;;;28.90;46.44;100345.39;1698590;82;20154;-76
2021/06/15 06:16:51;;;;;;;;;;;;;;;29.06;46.18;100344.22;1700568;82;20738;-77
2021/06/15 06:19:17;;;;;;;;;;;;;;;29.24;46.05;100341.36;1699581;82;20144;-75
2021/06/15 06:21:43;;;;;;;;;;;;;;;29.43;45.63;100346.47;1674515;82;20206;-76
2021/06/15 06:24:11;;;;;;;;;;;;;;;29.58;45.37;100333.17;1709909;82;20173;-76
2021/06/15 06:26:38;;;;;;;;;;;;;;;29.74;45.09;100336.06;1710365;82;20185;-76
2021/06/15 06:29:04;;;;;;;;;;;;;;;29.96;44.76;100334.78;1696640;82;20418;-76
2021/06/15 06:31:32;;;;;;;;;;;;;;;30.10;44.34;100337.12;1712276;82;20183;-76
2021/06/15 06:33:59;;;;;;;;;;;;;;;30.19;44.20;100339.55;1709245;82;20605;-76
2021/06/15 06:36:25;;;;;;;;;;;;;;;30.33;44.00;100333.59;1713529;81;20148;-76
2021/06/15 06:38:52;;;;;;;;;;;;;;;30.48;43.72;100333.19;1708854;82;20181;-76
2021/06/15 06:41:19;;;;;;;;;;;;;;;30.63;43.34;100333.56;1712041;82;20149;-76
2021/06/15 06:43:46;;;;;;;;;;;;;;;31.05;42.75;100329.99;1673261;84;20199;-76
2021/06/15 06:46:12;;;;;;;;;;;;;;;31.34;42.24;100331.28;1695528;82;20174;-76
2021/06/15 06:48:38;;;;;;;;;;;;;;;31.11;42.78;100331.56;1688567;82;20383;-76
2021/06/15 06:51:10;;;;;;;;;;;;;;;31.21;42.68;100330.62;1709064;82;20153;-76
2021/06/15 06:53:37;;;;;;;;;;;;;;;31.35;42.41;100332.11;1708811;81;20177;-76
2021/06/15 06:56:06;;;;;;;;;;;;;;;31.49;42.21;100331.04;1696115;82;20174;-76
2021/06/15 06:58:33;;;;;;;;;;;;;;;31.65;42.01;100335.75;1667776;84;20208;-77
2021/06/15 07:00:59;;;;;;;;;;;;;;;31.83;41.75;100331.34;1697737;82;20646;-76
2021/06/15 07:03:25;;;;;;;;;;;;;;;32.38;40.60;100330.66;1695048;82;20162;-77
2021/06/15 07:05:51;;;;;;;;;;;;;;;32.22;40.90;100336.47;1696267;82;20190;-77
2021/06/15 07:08:17;;;;;;;;;;;;;;;32.28;40.89;100335.80;1695769;82;20157;-77
2021/06/15 07:10:43;;;;;;;;;;;;;;;32.41;40.79;100329.48;1695702;82;20153;-76
2021/06/15 07:13:09;;;;;;;;;;;;;;;32.55;40.57;100330.30;1707797;82;20842;-77
2021/06/15 07:15:35;;;;;;;;;;;;;;;32.67;40.13;100327.59;1697911;82;20170;-76
2021/06/15 07:18:01;;;;;;;;;;;;;;;32.76;39.87;100327.94;1697603;82;20172;-76
2021/06/15 07:20:27;;;;;;;;;;;;;;;32.85;39.58;100330.81;1696930;82;20165;-77
2021/06/15 07:23:08;;;;;;;;;;;;;;;32.96;39.19;100320.33;1698806;82;20507;-78
2021/06/15 07:25:43;;;;;;;;;;;;;;;33.00;38.92;100322.17;1669492;84;20155;-78
2021/06/15 07:28:09;;;;;;;;;;;;;;;33.08;38.75;100328.95;1695659;82;20174;-76
2021/06/15 07:30:36;;;;;;;;;;;;;;;33.14;38.47;100330.47;1669218;82;20198;-77
2021/06/15 07:33:04;;;;;;;;;;;;;;;33.19;38.29;100321.20;1696378;82;20166;-77
2021/06/15 07:35:30;;;;;;;;;;;;;;;33.23;38.21;100322.22;1705818;82;20458;-77
2021/06/15 07:37:56;;;;;;;;;;;;;;;33.28;38.28;100325.69;1703509;82;20538;-77
2021/06/15 07:40:23;;;;;;;;;;;;;;;33.33;37.89;100324.75;1704499;82;20187;-76
2021/06/15 07:42:54;;;;;;;;;;;;;;;33.37;37.62;100329.11;1705075;82;20165;-76
2021/06/15 07:45:21;;;;;;;;;;;;;;;33.39;37.51;100337.97;1676460;83;20441;-78
2021/06/15 07:47:47;;;;;;;;;;;;;;;33.41;37.42;100334.30;1664503;84;20188;-77
2021/06/15 07:50:14;;;;;;;;;;;;;;;33.57;36.84;100340.59;1693967;82;20155;-76
2021/06/15 07:52:41;;;;;;;;;;;;;;;33.53;36.82;100333.21;1705132;81;20172;-76
2021/06/15 07:55:11;;;;;;;;;;;;;;;33.46;37.42;100334.20;1702045;82;20604;-76
2021/06/15 07:57:37;;;;;;;;;;;;;;;33.47;37.03;100327.51;1681023;83;20204;-76
2021/06/15 08:00:10;;;;;;;;;;;;;;;33.48;36.72;100325.01;1702848;82;20541;-76
2021/06/15 08:02:50;;;;;;;;;;;;;;;33.49;36.41;100326.64;1688248;82;20478;-76
2021/06/15 08:05:22;;;;;;;;;;;;;;;33.50;36.18;100326.31;1702752;82;20196;-75
2021/06/15 08:07:52;;;;;;;;;;;;;;;33.49;36.28;100323.87;1704315;82;20476;-76
2021/06/15 08:10:19;;;;;;;;;;;;;;;33.83;35.72;100328.27;1703830;81;20221;-76
2021/06/15 08:12:48;;;;;;;;;;;;;;;33.78;36.04;100323.41;1711687;81;20210;-76
2021/06/15 08:15:14;;;;;;;;;;;;;;;33.46;36.76;100321.70;1693415;82;20249;-76
2021/06/15 08:18:18;;;;;;;;;;;;;;;;;;;;;
2021/06/15 08:20:50;;;;;;;;;;;;;;;33.48;36.25;100323.62;1690145;82;20182;-77
2021/06/15 08:23:21;;;;;;;;;;;;;;;33.43;35.99;100325.95;1693183;82;20421;-77
2021/06/15 08:25:54;;;;;;;;;;;;;;;33.32;36.22;100314.22;1695089;82;20409;-76
2021/06/15 08:28:17;;;;;;;;;;;;;;;33.30;36.58;100319.27;1667722;82;20492;-77
2021/06/15 08:30:51;;;;;;;;;;;;;;;33.28;36.43;100316.55;1692739;82;20461;-77
2021/06/15 08:33:17;;;;;;;;;;;;;;;33.29;36.42;100316.80;1693923;82;20227;-77
2021/06/15 08:35:44;;;;;;;;;;;;;;;33.22;36.20;100312.26;1694500;82;20210;-76
2021/06/15 08:38:10;;;;;;;;;;;;;;;33.18;36.58;100310.67;1694090;82;20151;-77
2021/06/15 08:40:36;;;;;;;;;;;;;;;33.15;36.58;100315.45;1692023;82;20924;-77
2021/06/15 08:43:04;;;;;;;;;;;;;;;33.08;36.66;100310.91;1697005;82;20211;-77
2021/06/15 08:45:30;;;;;;;;;;;;;;;33.04;36.79;100314.87;1704675;82;20547;-76
2021/06/15 08:47:57;;;;;;;;;;;;;;;33.36;35.83;100305.27;1708042;82;20153;-77
2021/06/15 08:50:27;;;;;;;;;;;;;;;33.47;36.03;100313.62;1682140;82;20172;-76
2021/06/15 08:52:54;;;;;;;;;;;;;;;33.50;35.81;100311.61;1663235;84;20207;-77
2021/06/15 08:55:20;;;;;;;;;;;;;;;33.10;36.45;100308.63;1663302;84;20182;-75
2021/06/15 08:57:50;;;;;;;;;;;;;;;33.07;36.43;100310.66;1704827;81;20184;-76
2021/06/15 09:00:17;;;;;;;;;;;;;;;33.07;36.64;100310.66;1703805;82;20192;-76
2021/06/15 09:02:45;;;;;;;;;;;;;;;33.06;36.93;100312.59;1702963;81;20177;-76
2021/06/15 09:05:14;;;;;;;;;;;;;;;33.07;37.37;100310.09;1701831;82;20478;-75
2021/06/15 09:08:01;;;;;;;;;;;;;;;33.08;36.59;100311.73;1664642;84;20465;-76
2021/06/15 09:10:29;;;;;;;;;;;;;;;33.02;36.51;100312.14;1667207;82;20224;-77
2021/06/15 09:12:56;;;;;;;;;;;;;;;32.97;36.69;100308.09;1692096;82;20138;-76
2021/06/15 09:15:23;;;;;;;;;;;;;;;32.94;36.48;100310.12;1693410;82;20761;-76
2021/06/15 09:17:49;;;;;;;;;;;;;;;32.89;36.40;100305.48;1691743;82;21530;-75
2021/06/15 09:20:22;;;;;;;;;;;;;;;32.87;36.58;100305.52;1695884;82;20223;-77
2021/06/15 09:23:03;;;;;;;;;;;;;;;32.87;36.75;100299.97;1693349;82;20627;-76
2021/06/15 09:25:38;;;;;;;;;;;;;;;32.86;36.91;100302.50;1693111;82;20231;-75
2021/06/15 09:28:22;;;;;;;;;;;;;;;32.83;36.67;100302.54;1655292;82;20186;-76
2021/06/15 09:31:18;;;;;;;;;;;;;;;32.81;36.83;100297.88;1696729;82;20204;-77
2021/06/15 09:33:51;;;;;;;;;;;;;;;32.80;36.51;100297.06;1661051;82;20181;-78
2021/06/15 09:36:27;;;;;;;;;;;;;;;32.78;36.66;100295.72;1708507;82;20212;-77
2021/06/15 09:39:00;;;;;;;;;;;;;;;32.76;36.53;100300.20;1666145;84;20158;-77
2021/06/15 09:41:43;;;;;;;;;;;;;;;32.72;36.50;100290.86;1683432;82;20205;-77
2021/06/15 09:44:22;;;;;;;;;;;;;;;32.69;36.42;100288.69;1672733;82;20284;-78
2021/06/15 09:46:56;;;;;;;;;;;;;;;32.66;36.81;100287.95;1639867;82;20190;-77
2021/06/15 09:49:39;;;;;;;;;;;;;;;32.61;36.33;100283.86;1700980;82;20217;-77
2021/06/15 09:52:25;;;;;;;;;;;;;;;32.55;36.17;100282.34;1697972;82;20170;-77
2021/06/15 09:54:55;;;;;;;;;;;;;;;32.52;35.97;100278.79;1707425;82;20541;-77
2021/06/15 09:57:26;;;;;;;;;;;;;;;32.44;35.60;100275.38;1705010;82;20979;-77
2021/06/15 10:00:00;;;;;;;;;;;;;;;32.40;35.81;100279.89;1703238;82;20225;-76
2021/06/15 10:02:26;;;;;;;;;;;;;;;32.33;35.11;100276.10;1708226;82;20183;-78
2021/06/15 10:04:52;;;;;;;;;;;;;;;32.25;35.29;100279.58;1684490;82;20995;-78
2021/06/15 10:07:27;;;;;;;;;;;;;;;32.19;34.96;100281.64;1670520;84;20181;-77
2021/06/15 10:09:55;;;;;;;;;;;;;;;32.51;34.02;100282.70;1671371;84;20177;-76
2021/06/15 10:12:21;;;;;;;;;;;;;;;32.49;34.54;100280.25;1668945;84;20124;-76
2021/06/15 10:14:47;;;;;;;;;;;;;;;32.14;34.92;100280.92;1698912;82;20183;-79
2021/06/15 10:17:13;;;;;;;;;;;;;;;32.04;34.50;100279.98;1705340;82;20215;-77
2021/06/15 10:19:40;;;;;;;;;;;;;;;32.02;34.52;100280.02;1706051;82;20239;-78
2021/06/15 10:22:07;;;;;;;;;;;;;;;32.00;34.48;100273.98;1707488;82;20428;-76
2021/06/15 10:24:37;;;;;;;;;;;;;;;32.00;34.39;100269.83;1708568;81;20181;-77
2021/06/15 10:27:07;;;;;;;;;;;;;;;31.98;34.62;100273.48;1710081;82;20169;-76
2021/06/15 10:29:36;;;;;;;;;;;;;;;32.24;34.50;100267.68;1709272;82;20208;-77
2021/06/15 10:32:12;;;;;;;;;;;;;;;32.06;34.93;100260.28;1685496;83;20177;-75
2021/06/15 10:34:56;;;;;;;;;;;;;;;31.91;35.26;100267.50;1708914;82;20374;-78
2021/06/15 10:37:36;;;;;;;;;;;;;;;31.88;35.00;100261.18;1709671;83;20582;-76
2021/06/15 10:40:14;;;;;;;;;;;;;;;31.86;34.69;100258.72;1709883;82;20589;-76
2021/06/15 10:42:46;;;;;;;;;;;;;;;31.83;34.24;100253.22;1709400;83;20433;-76
2021/06/15 10:45:17;;;;;;;;;;;;;;;31.80;34.32;100253.81;1679825;82;20208;-78
2021/06/15 10:48:07;;;;;;;;;;;;;;;31.77;34.36;100244.72;1705896;82;20184;-77
2021/06/15 10:50:38;;;;;;;;;;;;;;;31.77;34.99;100241.95;1698283;83;20197;-76
2021/06/15 10:53:05;;;;;;;;;;;;;;;31.76;35.12;100238.94;1701157;83;20723;-76
2021/06/15 10:55:50;;;;;;;;;;;;;;;31.73;35.35;100232.61;1702561;82;20178;-77
2021/06/15 10:58:39;;;;;;;;;;;;;;;31.72;35.16;100232.36;1669673;84;20180;-76
2021/06/15 11:01:19;;;;;;;;;;;;;;;31.72;35.21;100217.69;1701674;82;20173;-77
2021/06/15 11:03:55;;;;;;;;;;;;;;;31.69;35.15;100210.80;1672177;84;20255;-77
2021/06/15 11:06:32;;;;;;;;;;;;;;;31.68;35.15;100209.73;1699820;82;20178;-77
2021/06/15 11:09:13;;;;;;;;;;;;;;;31.69;35.21;100206.65;1670707;84;20173;-79
2021/06/15 11:11:40;;;;;;;;;;;;;;;31.69;35.37;100201.11;1708024;83;20168;-77
2021/06/15 11:14:17;;;;;;;;;;;;;;;31.68;34.51;100196.70;1711060;82;20448;-77
2021/06/15 11:16:45;;;;;;;;;;;;;;;32.07;34.00;100189.34;1673041;84;20405;-77
2021/06/15 11:19:19;;;;;;;;;;;;;;;31.70;34.91;100177.83;1699729;82;20198;-76
2021/06/15 11:25:03;;;;;;;;;;;;;;;31.65;35.22;100175.16;1663220;84;20174;-76
2021/06/15 11:27:32;;;;;;;;;;;;;;;31.85;34.93;100169.02;1672045;82;20199;-76
2021/06/15 11:30:18;;;;;;;;;;;;;;;31.64;34.99;100170.75;1698511;82;20154;-76
2021/06/15 11:35:43;;;;;;;;;;;;;;;31.53;34.65;100151.31;1620265;85;20616;-75
2021/06/15 11:38:16;;;;;;;;;;;;;;;31.89;34.22;100138.20;1646931;85;20210;-75
2021/06/15 11:40:42;;;;;;;;;;;;;;;31.94;34.13;100144.45;1647248;85;20213;-74
2021/06/15 11:43:19;;;;;;;;;;;;;;;31.95;34.40;100128.64;1636094;84;20228;-74
2021/06/15 11:46:00;;;;;;;;;;;;;;;31.97;33.80;100141.61;1667494;84;20166;-78
2021/06/15 11:48:35;;;;;;;;;;;;;;;31.58;34.19;100130.45;1701410;82;20181;-77
2021/06/15 11:51:06;;;;;;;;;;;;;;;31.48;34.66;100126.50;1702823;83;20180;-76
2021/06/15 11:53:41;;;;;;;;;;;;;;;31.57;34.85;100127.44;1666796;82;20236;-77
2021/06/15 11:56:11;;;;;;;;;;;;;;;31.69;34.55;100120.80;1665873;84;20262;-77
2021/06/15 11:58:47;;;;;;;;;;;;;;;31.85;34.19;100132.45;1668550;84;20234;-76
2021/06/15 12:01:17;;;;;;;;;;;;;;;31.86;34.12;100129.92;1669069;84;20483;-77
2021/06/15 12:03:45;;;;;;;;;;;;;;;31.85;34.15;100119.16;1684504;83;20524;-76
2021/06/15 12:06:12;;;;;;;;;;;;;;;31.81;33.73;100121.69;1672472;84;20158;-76
2021/06/15 12:08:43;;;;;;;;;;;;;;;31.78;33.44;100120.34;1672767;84;20155;-77
2021/06/15 12:11:14;;;;;;;;;;;;;;;31.74;33.86;100123.47;1681302;84;20610;-80
2021/06/15 12:13:42;;;;;;;;;;;;;;;31.48;34.57;100126.50;1679975;83;20156;-76
2021/06/15 12:16:30;;;;;;;;;;;;;;;31.28;35.20;100120.20;1647953;84;20161;-79
2021/06/15 12:18:58;;;;;;;;;;;;;;;31.22;35.63;100101.20;1699246;82;20207;-78
2021/06/15 12:21:35;;;;;;;;;;;;;;;31.21;36.17;100107.30;1700328;82;20145;-78
2021/06/15 12:24:22;;;;;;;;;;;;;;;31.22;35.92;100106.73;1672461;82;20750;-77
2021/06/15 12:27:09;;;;;;;;;;;;;;;31.21;35.90;100104.54;1666227;82;20211;-75
2021/06/15 12:29:36;;;;;;;;;;;;;;;31.21;36.63;100101.77;1670676;83;20186;-79
2021/06/15 12:32:03;;;;;;;;;;;;;;;31.22;37.75;100102.59;1697746;83;20180;-78
2021/06/15 12:34:30;;;;;;;;;;;;;;;31.21;37.68;100097.62;1698530;82;20165;-77
2021/06/15 12:37:03;;;;;;;;;;;;;;;31.21;37.58;100099.00;1713291;82;20615;-76
2021/06/15 12:39:28;;;;;;;;;;;;;;;31.32;37.34;100096.32;1712774;81;20624;-78
2021/06/15 12:42:03;;;;;;;;;;;;;;;31.22;37.82;100099.25;1712793;82;20215;-78
2021/06/15 12:44:32;;;;;;;;;;;;;;;31.20;37.97;100097.34;1716427;82;20167;-78
2021/06/15 12:47:01;;;;;;;;;;;;;;;31.19;37.54;100119.78;1712708;82;20153;-77
2021/06/15 12:49:27;;;;;;;;;;;;;;;31.12;38.31;100120.77;1718079;82;20156;-78
2021/06/15 12:52:09;;;;;;;;;;;;;;;31.04;37.93;100116.73;1694795;82;20254;-77
2021/06/15 12:54:38;;;;;;;;;;;;;;;30.95;37.86;100126.84;1701241;82;20197;-77
2021/06/15 12:57:13;;;;;;;;;;;;;;;30.88;38.28;100129.98;1709648;82;20246;-78
2021/06/15 12:59:41;;;;;;;;;;;;;;;30.81;38.88;100128.99;1676188;84;20298;-76
2021/06/15 13:02:16;;;;;;;;;;;;;;;30.74;39.27;100128.55;1676586;83;20213;-77
2021/06/15 13:04:57;;;;;;;;;;;;;;;30.63;39.39;100121.52;1684274;84;20237;-77